Time;durP1;ratioP1;P1;durP2;ratioP2;P2;SDS_P1;SDS_P2;PMS_P1;PMS_P2;Temp;Humidity;BMP_temperature;BMP_pressure;BME280_temperature;BME280_humidity;BME280_pressure;Samples;Min_cycle;Max_cycle;Signal;HPM_P1;HPM_P2
2022/07/04 00:01:45;;;;;;;;;0.00;0.00;;;;;;;;5094744;27;45355;-70
2022/07/04 00:04:11;;;;;;;;;0.00;0.00;;;;;;;;5094451;27;45454;-70
2022/07/04 00:06:36;;;;;;;;;0.00;0.00;;;;;;;;5094295;27;45480;-71
2022/07/04 00:09:01;;;;;;;;;0.00;0.00;;;;;;;;5096018;27;45689;-70
2022/07/04 00:11:26;;;;;;;;;0.33;0.00;;;;;;;;5094420;27;46309;-70
2022/07/04 00:13:51;;;;;;;;;0.00;0.00;;;;;;;;5097912;27;45321;-70
2022/07/04 00:16:17;;;;;;;;;0.00;0.00;;;;;;;;5094352;27;45259;-70
2022/07/04 00:18:42;;;;;;;;;0.00;0.00;;;;;;;;5095858;27;45368;-70
2022/07/04 00:21:07;;;;;;;;;0.00;0.00;;;;;;;;5093886;27;46704;-70
2022/07/04 00:23:32;;;;;;;;;0.00;0.00;;;;;;;;5094380;27;45600;-70
2022/07/04 00:25:57;;;;;;;;;0.67;0.67;;;;;;;;5097503;27;45480;-71
2022/07/04 00:28:23;;;;;;;;;0.00;0.00;;;;;;;;5095073;27;45396;-70
2022/07/04 00:30:48;;;;;;;;;0.00;0.00;;;;;;;;5093952;27;46096;-70
2022/07/04 00:33:13;;;;;;;;;0.00;0.00;;;;;;;;5094317;27;45523;-70
2022/07/04 00:35:39;;;;;;;;;0.00;0.00;;;;;;;;5094175;27;45422;-71
2022/07/04 00:38:04;;;;;;;;;0.00;0.00;;;;;;;;5096403;27;45242;-70
2022/07/04 00:40:29;;;;;;;;;0.00;0.00;;;;;;;;5094965;27;46464;-71
2022/07/04 00:42:59;;;;;;;;;0.00;0.00;;;;;;;;5093897;27;45470;-70
2022/07/04 00:45:24;;;;;;;;;0.00;0.00;;;;;;;;5094113;27;45474;-70
2022/07/04 00:47:49;;;;;;;;;0.00;0.00;;;;;;;;5093832;27;45353;-70
2022/07/04 00:50:15;;;;;;;;;0.00;0.00;;;;;;;;5094604;27;46309;-71
2022/07/04 00:52:40;;;;;;;;;0.00;0.00;;;;;;;;5096230;27;45372;-70
2022/07/04 00:55:05;;;;;;;;;0.33;0.33;;;;;;;;5093599;27;45496;-70
2022/07/04 00:57:31;;;;;;;;;0.33;0.00;;;;;;;;5093697;27;45479;-70
2022/07/04 00:59:56;;;;;;;;;0.00;0.00;;;;;;;;5093405;27;45638;-71
2022/07/04 01:02:21;;;;;;;;;2.67;1.00;;;;;;;;5094051;27;45239;-70
2022/07/04 01:04:46;;;;;;;;;0.00;0.00;;;;;;;;5096664;27;45245;-71
2022/07/04 01:07:12;;;;;;;;;0.00;0.00;;;;;;;;5093616;27;45394;-70
2022/07/04 01:09:38;;;;;;;;;0.00;0.00;;;;;;;;5093252;27;46216;-70
2022/07/04 01:12:03;;;;;;;;;0.00;0.00;;;;;;;;5093537;27;45350;-71
2022/07/04 01:14:28;;;;;;;;;0.00;0.00;;;;;;;;5092205;27;45473;-71
2022/07/04 01:16:54;;;;;;;;;0.00;0.00;;;;;;;;5097505;27;45449;-70
2022/07/04 01:19:19;;;;;;;;;0.00;0.00;;;;;;;;5092807;27;46919;-70
2022/07/04 01:21:44;;;;;;;;;0.00;0.00;;;;;;;;5093007;27;45319;-70
2022/07/04 01:24:12;;;;;;;;;0.00;0.00;;;;;;;;5093655;27;45382;-70
2022/07/04 01:26:38;;;;;;;;;0.00;0.00;;;;;;;;5093337;27;45516;-70
2022/07/04 01:29:03;;;;;;;;;0.00;0.00;;;;;;;;5095102;27;45521;-70
2022/07/04 01:31:28;;;;;;;;;0.00;0.00;;;;;;;;5094588;27;45546;-70
2022/07/04 01:33:53;;;;;;;;;0.00;0.00;;;;;;;;5092291;27;45515;-70
2022/07/04 01:36:18;;;;;;;;;0.00;0.00;;;;;;;;5093322;27;45426;-71
2022/07/04 01:38:44;;;;;;;;;0.00;0.00;;;;;;;;5092591;27;46286;-70
2022/07/04 01:41:09;;;;;;;;;1.00;0.00;;;;;;;;5094222;27;45432;-71
2022/07/04 01:43:35;;;;;;;;;0.00;0.00;;;;;;;;5097093;27;45382;-70
2022/07/04 01:46:00;;;;;;;;;0.00;0.00;;;;;;;;5093001;27;45464;-70
2022/07/04 01:48:25;;;;;;;;;0.00;0.00;;;;;;;;5092575;27;45653;-70
2022/07/04 01:50:50;;;;;;;;;0.00;0.00;;;;;;;;5092656;27;45506;-70
2022/07/04 01:53:15;;;;;;;;;0.00;0.00;;;;;;;;5094114;27;45457;-70
2022/07/04 01:55:41;;;;;;;;;1.00;0.00;;;;;;;;5095235;27;45529;-71
2022/07/04 01:58:06;;;;;;;;;0.00;0.00;;;;;;;;5092250;27;46745;-70
2022/07/04 02:03:15;;;;;;;;;0.00;0.00;;;;;;;;5092510;27;45492;-71
2022/07/04 02:05:42;;;;;;;;;2.00;0.00;;;;;;;;5092590;27;45674;-70
2022/07/04 02:08:08;;;;;;;;;0.33;0.00;;;;;;;;5095026;27;46437;-71
2022/07/04 02:10:33;;;;;;;;;0.00;0.00;;;;;;;;5093789;27;45381;-70
2022/07/04 02:13:02;;;;;;;;;0.00;0.00;;;;;;;;5092098;27;45410;-71
2022/07/04 02:15:30;;;;;;;;;1.00;0.00;;;;;;;;5092897;27;45527;-71
2022/07/04 02:17:55;;;;;;;;;0.00;0.00;;;;;;;;5092025;27;46240;-70
2022/07/04 02:20:21;;;;;;;;;1.33;0.00;;;;;;;;5094153;27;45378;-70
2022/07/04 02:22:46;;;;;;;;;0.00;0.00;;;;;;;;5096210;27;45334;-70
2022/07/04 02:25:11;;;;;;;;;0.00;0.00;;;;;;;;5093431;27;45305;-71
2022/07/04 02:27:37;;;;;;;;;0.00;0.00;;;;;;;;5092199;27;46208;-71
2022/07/04 02:30:02;;;;;;;;;0.00;0.00;;;;;;;;5092289;27;45494;-70
2022/07/04 02:32:28;;;;;;;;;1.00;0.00;;;;;;;;5090728;27;45483;-70
2022/07/04 02:34:53;;;;;;;;;0.00;0.00;;;;;;;;5096216;27;45457;-70
2022/07/04 02:37:18;;;;;;;;;0.00;0.00;;;;;;;;5093819;27;45420;-71
2022/07/04 02:39:43;;;;;;;;;0.00;0.00;;;;;;;;5092052;27;45270;-70
2022/07/04 02:42:08;;;;;;;;;0.00;0.00;;;;;;;;5092368;27;45471;-70
2022/07/04 02:44:34;;;;;;;;;0.00;0.00;;;;;;;;5093828;27;45940;-70
2022/07/04 02:47:00;;;;;;;;;1.00;0.67;;;;;;;;5095795;27;46607;-70
2022/07/04 02:49:25;;;;;;;;;0.00;0.00;;;;;;;;5092841;27;45336;-71
2022/07/04 02:51:50;;;;;;;;;0.00;0.00;;;;;;;;5091912;27;45327;-70
2022/07/04 02:54:15;;;;;;;;;0.00;0.00;;;;;;;;5092242;27;45284;-70
2022/07/04 02:56:41;;;;;;;;;0.00;0.00;;;;;;;;5092054;27;45531;-70
2022/07/04 02:59:06;;;;;;;;;0.00;0.00;;;;;;;;5094360;27;45460;-71
2022/07/04 03:01:32;;;;;;;;;0.00;0.00;;;;;;;;5092969;27;45418;-70
2022/07/04 03:03:57;;;;;;;;;1.00;1.00;;;;;;;;5091705;27;45499;-70
2022/07/04 03:06:22;;;;;;;;;0.00;0.00;;;;;;;;5091840;27;45527;-71
2022/07/04 03:08:47;;;;;;;;;0.00;0.00;;;;;;;;5091800;27;45463;-71
2022/07/04 03:11:12;;;;;;;;;0.33;0.00;;;;;;;;5093722;27;45650;-71
2022/07/04 03:13:39;;;;;;;;;0.00;0.00;;;;;;;;5093508;27;45452;-70
2022/07/04 03:16:04;;;;;;;;;0.00;0.00;;;;;;;;5090839;27;46744;-70
2022/07/04 03:18:29;;;;;;;;;0.67;0.00;;;;;;;;5091459;27;45471;-70
2022/07/04 03:20:55;;;;;;;;;0.00;0.00;;;;;;;;5091840;27;45716;-70
2022/07/04 03:23:20;;;;;;;;;0.00;0.00;;;;;;;;5092386;27;45552;-70
2022/07/04 03:25:45;;;;;;;;;0.25;0.25;;;;;;;;5094209;27;46581;-71
2022/07/04 03:28:11;;;;;;;;;1.33;0.00;;;;;;;;5091390;27;45273;-70
2022/07/04 03:30:36;;;;;;;;;0.00;0.00;;;;;;;;5091061;27;45474;-70
2022/07/04 03:33:01;;;;;;;;;0.00;0.00;;;;;;;;5091319;27;45516;-71
2022/07/04 03:35:27;;;;;;;;;0.00;0.00;;;;;;;;5091504;27;46337;-71
2022/07/04 03:37:52;;;;;;;;;0.00;0.00;;;;;;;;5097589;27;45615;-71
2022/07/04 03:40:18;;;;;;;;;0.00;0.00;;;;;;;;5094906;27;45531;-70
2022/07/04 03:42:43;;;;;;;;;0.00;0.00;;;;;;;;5094920;27;45632;-71
2022/07/04 03:45:09;;;;;;;;;1.00;0.00;;;;;;;;5094508;27;45444;-71
2022/07/04 03:47:34;;;;;;;;;0.00;0.00;;;;;;;;5095042;27;45448;-70
2022/07/04 03:49:59;;;;;;;;;1.00;1.00;;;;;;;;5097276;27;45350;-70
2022/07/04 03:52:24;;;;;;;;;0.00;0.00;;;;;;;;5095481;27;45451;-71
2022/07/04 03:54:50;;;;;;;;;1.00;1.00;;;;;;;;5094284;27;45472;-70
2022/07/04 03:57:15;;;;;;;;;0.00;0.00;;;;;;;;5094630;27;45492;-71
2022/07/04 03:59:40;;;;;;;;;0.00;0.00;;;;;;;;5096759;27;45373;-71
2022/07/04 04:02:07;;;;;;;;;0.67;0.67;;;;;;;;5097106;27;45334;-70
2022/07/04 04:07:16;;;;;;;;;0.00;0.00;;;;;;;;5093265;27;45556;-71
2022/07/04 04:09:41;;;;;;;;;0.00;0.00;;;;;;;;5089808;27;45530;-70
2022/07/04 04:12:06;;;;;;;;;0.00;0.00;;;;;;;;5094928;27;45434;-71
2022/07/04 04:14:32;;;;;;;;;0.00;0.00;;;;;;;;5103076;27;47445;-70
2022/07/04 04:16:57;;;;;;;;;2.00;0.00;;;;;;;;5097884;27;45324;-71
2022/07/04 04:19:22;;;;;;;;;0.00;0.00;;;;;;;;5094807;27;45308;-70
2022/07/04 04:21:47;;;;;;;;;0.00;0.00;;;;;;;;5094301;27;45340;-70
2022/07/04 04:24:12;;;;;;;;;1.00;1.00;;;;;;;;5094328;27;46329;-70
2022/07/04 04:26:38;;;;;;;;;0.00;0.00;;;;;;;;5094222;27;45309;-70
2022/07/04 04:29:03;;;;;;;;;0.33;0.33;;;;;;;;5096482;27;45418;-71
2022/07/04 04:31:30;;;;;;;;;0.00;0.00;;;;;;;;5095679;27;45403;-70
2022/07/04 04:33:55;;;;;;;;;0.00;0.00;;;;;;;;5093713;27;45459;-71
2022/07/04 04:36:20;;;;;;;;;0.00;0.00;;;;;;;;5094217;27;45445;-71
2022/07/04 04:38:46;;;;;;;;;0.00;0.00;;;;;;;;5094387;27;45511;-71
2022/07/04 04:41:11;;;;;;;;;0.67;0.67;;;;;;;;5096371;27;45280;-71
2022/07/04 04:43:36;;;;;;;;;1.00;1.00;;;;;;;;5097278;27;45379;-71
2022/07/04 04:46:01;;;;;;;;;1.00;0.00;;;;;;;;5093706;27;45451;-71
2022/07/04 04:48:27;;;;;;;;;0.00;0.00;;;;;;;;5095957;27;45264;-71
2022/07/04 04:50:52;;;;;;;;;0.33;0.33;;;;;;;;5093765;27;45389;-71
2022/07/04 04:53:17;;;;;;;;;0.33;0.00;;;;;;;;5094990;27;46737;-71
2022/07/04 04:55:42;;;;;;;;;0.00;0.00;;;;;;;;5096276;27;45319;-71
2022/07/04 04:58:08;;;;;;;;;1.00;0.00;;;;;;;;5093381;27;45416;-71
2022/07/04 05:00:33;;;;;;;;;0.00;0.00;;;;;;;;5093957;27;45281;-71
2022/07/04 05:02:58;;;;;;;;;0.33;0.00;;;;;;;;5093376;27;45318;-71
2022/07/04 05:05:23;;;;;;;;;0.00;0.00;;;;;;;;5094367;27;45305;-71
2022/07/04 05:07:48;;;;;;;;;0.00;0.00;;;;;;;;5097003;27;45305;-71
2022/07/04 05:10:15;;;;;;;;;0.00;0.00;;;;;;;;5093725;27;45492;-70
2022/07/04 05:12:40;;;;;;;;;0.00;0.00;;;;;;;;5092707;27;45498;-71
2022/07/04 05:15:06;;;;;;;;;0.67;0.67;;;;;;;;5093336;27;45467;-71
2022/07/04 05:17:31;;;;;;;;;0.00;0.00;;;;;;;;5092844;27;45741;-71
2022/07/04 05:19:56;;;;;;;;;0.00;0.00;;;;;;;;5096667;27;45252;-71
2022/07/04 05:22:21;;;;;;;;;0.00;0.00;;;;;;;;5093665;27;46498;-71
2022/07/04 05:24:47;;;;;;;;;0.00;0.00;;;;;;;;5093187;27;45614;-71
2022/07/04 05:27:12;;;;;;;;;1.00;1.00;;;;;;;;5092654;27;45409;-71
2022/07/04 05:29:37;;;;;;;;;1.00;1.00;;;;;;;;5093447;27;46832;-71
2022/07/04 05:32:03;;;;;;;;;1.33;1.00;;;;;;;;5095457;27;46110;-71
2022/07/04 05:34:28;;;;;;;;;2.00;1.00;;;;;;;;5094105;27;45494;-71
2022/07/04 05:36:54;;;;;;;;;0.00;0.00;;;;;;;;5093313;27;45398;-71
2022/07/04 05:39:19;;;;;;;;;0.33;0.33;;;;;;;;5093045;27;45595;-70
2022/07/04 05:41:45;;;;;;;;;1.00;1.00;;;;;;;;5092391;27;45374;-69
2022/07/04 05:44:10;;;;;;;;;0.00;0.00;;;;;;;;5102572;27;45690;-71
2022/07/04 05:46:35;;;;;;;;;0.33;0.33;;;;;;;;5094427;27;45544;-71
2022/07/04 05:49:00;;;;;;;;;1.00;1.00;;;;;;;;5093047;27;45294;-68
2022/07/04 05:51:25;;;;;;;;;0.00;0.00;;;;;;;;5092807;27;45437;-69
2022/07/04 05:53:51;;;;;;;;;0.00;0.00;;;;;;;;5092577;27;45358;-70
2022/07/04 05:56:16;;;;;;;;;0.00;0.00;;;;;;;;5095924;27;45553;-70
2022/07/04 05:58:41;;;;;;;;;0.00;0.00;;;;;;;;5096616;27;45489;-70
2022/07/04 06:01:06;;;;;;;;;1.00;1.00;;;;;;;;5093119;27;47293;-70
2022/07/04 06:03:32;;;;;;;;;1.00;1.00;;;;;;;;5092580;27;45503;-69
2022/07/04 06:05:57;;;;;;;;;0.67;0.00;;;;;;;;5092335;27;45412;-70
2022/07/04 06:08:23;;;;;;;;;1.00;1.00;;;;;;;;5093217;27;45555;-70
2022/07/04 06:10:48;;;;;;;;;1.33;1.33;;;;;;;;5095126;27;46442;-70
2022/07/04 06:13:13;;;;;;;;;1.00;1.00;;;;;;;;5092328;27;45320;-70
2022/07/04 06:15:39;;;;;;;;;0.50;0.00;;;;;;;;5092227;27;45482;-69
2022/07/04 06:18:04;;;;;;;;;1.67;1.00;;;;;;;;5092529;27;45504;-70
2022/07/04 06:20:29;;;;;;;;;2.00;2.00;;;;;;;;5093610;27;45327;-70
2022/07/04 06:22:55;;;;;;;;;4.00;4.00;;;;;;;;5096013;27;45348;-69
2022/07/04 06:25:20;;;;;;;;;1.33;1.33;;;;;;;;5092095;27;45464;-74
2022/07/04 06:27:46;;;;;;;;;2.33;2.00;;;;;;;;5092038;27;45615;-71
2022/07/04 06:30:12;;;;;;;;;3.33;1.00;;;;;;;;5092199;27;45498;-71
2022/07/04 06:32:41;;;;;;;;;0.00;0.00;;;;;;;;5092138;27;45364;-71
2022/07/04 06:37:51;;;;;;;;;1.00;0.00;;;;;;;;5095263;27;45414;-71
2022/07/04 06:40:16;;;;;;;;;0.33;0.00;;;;;;;;5091845;27;46147;-72
2022/07/04 06:42:41;;;;;;;;;0.67;0.67;;;;;;;;5091825;27;45449;-71
2022/07/04 06:45:07;;;;;;;;;2.00;0.33;;;;;;;;5093293;27;45305;-71
2022/07/04 06:47:32;;;;;;;;;1.00;1.00;;;;;;;;5092064;27;45283;-71
2022/07/04 06:49:57;;;;;;;;;1.67;1.67;;;;;;;;5094796;27;45388;-71
2022/07/04 06:52:22;;;;;;;;;1.00;1.00;;;;;;;;5093877;27;45506;-71
2022/07/04 06:54:47;;;;;;;;;1.00;1.00;;;;;;;;5091896;27;45298;-72
2022/07/04 06:57:13;;;;;;;;;0.67;0.67;;;;;;;;5091822;27;45461;-71
2022/07/04 06:59:39;;;;;;;;;1.00;1.00;;;;;;;;5091649;27;45378;-71
2022/07/04 07:02:04;;;;;;;;;2.00;1.00;;;;;;;;5093751;27;45276;-71
2022/07/04 07:04:29;;;;;;;;;0.00;0.00;;;;;;;;5093100;27;45466;-72
2022/07/04 07:06:54;;;;;;;;;1.00;1.00;;;;;;;;5091594;27;45487;-71
2022/07/04 07:09:19;;;;;;;;;3.00;1.00;;;;;;;;5092776;27;46514;-72
2022/07/04 07:11:45;;;;;;;;;0.67;0.67;;;;;;;;5093842;27;45585;-72
2022/07/04 07:14:11;;;;;;;;;0.67;0.67;;;;;;;;5097546;27;45855;-72
2022/07/04 07:16:36;;;;;;;;;2.00;2.00;;;;;;;;5096665;27;45323;-71
2022/07/04 07:19:01;;;;;;;;;1.00;1.00;;;;;;;;5095093;27;45507;-71
2022/07/04 07:21:26;;;;;;;;;0.33;0.33;;;;;;;;5094939;27;45390;-71
2022/07/04 07:23:51;;;;;;;;;1.00;1.00;;;;;;;;5095120;27;45496;-71
2022/07/04 07:26:16;;;;;;;;;0.00;0.00;;;;;;;;5096740;27;45794;-71
2022/07/04 07:28:42;;;;;;;;;1.00;1.00;;;;;;;;5097290;27;45378;-72
2022/07/04 07:31:07;;;;;;;;;1.00;1.00;;;;;;;;5094951;27;45427;-71
2022/07/04 07:33:32;;;;;;;;;1.00;0.67;;;;;;;;5095042;27;45477;-72
2022/07/04 07:35:58;;;;;;;;;0.33;0.33;;;;;;;;5094686;27;45532;-71
2022/07/04 07:38:23;;;;;;;;;0.00;0.00;;;;;;;;5095218;27;45386;-71
2022/07/04 07:40:48;;;;;;;;;1.00;1.00;;;;;;;;5098008;27;45369;-71
2022/07/04 07:43:13;;;;;;;;;0.33;0.33;;;;;;;;5095009;27;45499;-71
2022/07/04 07:45:38;;;;;;;;;0.00;0.00;;;;;;;;5094923;27;45498;-71
2022/07/04 07:48:04;;;;;;;;;1.33;1.00;;;;;;;;5094596;27;46767;-71
2022/07/04 07:50:29;;;;;;;;;0.67;0.67;;;;;;;;5093971;27;45508;-71
2022/07/04 07:52:54;;;;;;;;;1.00;1.00;;;;;;;;5098668;27;45359;-72
2022/07/04 07:55:19;;;;;;;;;0.33;0.33;;;;;;;;5094770;27;45447;-71
2022/07/04 07:57:44;;;;;;;;;1.00;1.00;;;;;;;;5094149;27;45536;-71
2022/07/04 08:00:11;;;;;;;;;1.00;1.00;;;;;;;;5094482;27;45331;-71
2022/07/04 08:05:20;;;;;;;;;1.00;1.00;;;;;;;;5095186;27;45600;-71
2022/07/04 08:07:46;;;;;;;;;0.33;0.33;;;;;;;;5096917;27;46540;-71
2022/07/04 08:10:11;;;;;;;;;0.67;0.67;;;;;;;;5094488;27;45393;-71
2022/07/04 08:12:36;;;;;;;;;1.33;1.33;;;;;;;;5096871;27;45428;-71
2022/07/04 08:15:02;;;;;;;;;1.00;1.00;;;;;;;;5094230;27;45516;-72
2022/07/04 08:17:28;;;;;;;;;0.67;0.67;;;;;;;;5095451;27;46471;-71
2022/07/04 08:19:53;;;;;;;;;1.33;1.33;;;;;;;;5097568;27;45718;-71
2022/07/04 08:22:18;;;;;;;;;1.00;1.00;;;;;;;;5093411;27;45361;-71
2022/07/04 08:24:44;;;;;;;;;0.00;0.00;;;;;;;;5094368;27;45405;-71
2022/07/04 08:27:09;;;;;;;;;2.67;0.67;;;;;;;;5093932;27;45456;-71
2022/07/04 08:29:35;;;;;;;;;1.00;1.00;;;;;;;;5094336;27;45435;-71
2022/07/04 08:32:00;;;;;;;;;1.00;1.00;;;;;;;;5097244;27;45467;-71
2022/07/04 08:34:25;;;;;;;;;1.67;1.00;;;;;;;;5094388;27;45472;-71
2022/07/04 08:36:50;;;;;;;;;1.00;1.00;;;;;;;;5093945;27;46353;-71
2022/07/04 08:39:16;;;;;;;;;1.00;1.00;;;;;;;;5094087;27;45358;-71
2022/07/04 08:41:42;;;;;;;;;0.00;0.00;;;;;;;;5093602;27;45581;-71
2022/07/04 08:44:10;;;;;;;;;1.00;1.00;;;;;;;;5095963;27;45369;-71
2022/07/04 08:46:37;;;;;;;;;1.00;0.00;;;;;;;;5097277;27;46500;-71
2022/07/04 08:49:03;;;;;;;;;1.00;1.00;;;;;;;;5093164;27;45471;-71
2022/07/04 08:51:43;;;;;;;;;0.00;0.00;;;;;;;;5093585;27;45528;-71
2022/07/04 08:59:37;;;;;;;;;1.00;1.00;;;;;;;;5092688;27;45686;-71
2022/07/04 09:02:03;;;;;;;;;1.33;0.00;;;;;;;;5096519;27;45326;-72
2022/07/04 09:04:29;;;;;;;;;1.00;1.00;;;;;;;;5095676;27;45451;-71
2022/07/04 09:06:55;;;;;;;;;1.67;1.67;;;;;;;;5093214;27;45456;-72
2022/07/04 09:09:20;;;;;;;;;0.33;0.33;;;;;;;;5093639;27;45499;-71
2022/07/04 09:11:45;;;;;;;;;1.00;1.00;;;;;;;;5093455;27;45365;-71
2022/07/04 09:14:10;;;;;;;;;3.33;0.67;;;;;;;;5096068;27;45362;-71
2022/07/04 09:16:36;;;;;;;;;0.67;0.67;;;;;;;;5093088;27;46376;-71
2022/07/04 09:19:01;;;;;;;;;1.00;1.00;;;;;;;;5094569;27;45338;-71
2022/07/04 09:21:42;;;;;;;;;1.33;1.00;;;;;;;;5093264;27;48411;-70
2022/07/04 09:24:08;;;;;;;;;1.00;1.00;;;;;;;;5093435;27;45494;-71
2022/07/04 09:26:33;;;;;;;;;0.00;0.00;;;;;;;;5093029;27;45953;-71
2022/07/04 09:28:59;;;;;;;;;1.33;1.33;;;;;;;;5096346;27;45450;-71
2022/07/04 09:31:25;;;;;;;;;3.00;1.67;;;;;;;;5093678;27;45472;-71
2022/07/04 09:33:55;;;;;;;;;2.00;2.00;;;;;;;;5091908;27;45294;-71
2022/07/04 09:36:21;;;;;;;;;1.33;1.33;;;;;;;;5092598;27;46458;-71
2022/07/04 09:39:03;;;;;;;;;2.67;2.00;;;;;;;;5093024;27;45545;-71
2022/07/04 09:41:35;;;;;;;;;0.00;0.00;;;;;;;;5090134;27;45210;-71
2022/07/04 09:44:00;;;;;;;;;1.00;1.00;;;;;;;;5095727;27;45504;-71
2022/07/04 09:46:25;;;;;;;;;0.00;0.00;;;;;;;;5093257;27;46092;-71
2022/07/04 09:48:51;;;;;;;;;2.00;0.00;;;;;;;;5092713;27;45944;-71
2022/07/04 09:51:36;;;;;;;;;0.00;0.00;;;;;;;;5092434;27;45340;-71
2022/07/04 09:54:14;;;;;;;;;1.67;0.33;;;;;;;;5092462;27;45517;-71
2022/07/04 09:56:40;;;;;;;;;0.67;0.67;;;;;;;;5092521;27;46343;-72
2022/07/04 09:59:06;;;;;;;;;1.00;1.00;;;;;;;;5094567;27;45349;-71
2022/07/04 10:01:32;;;;;;;;;3.00;1.67;;;;;;;;5093869;27;45402;-71
2022/07/04 10:03:57;;;;;;;;;0.67;0.67;;;;;;;;5092562;27;45392;-71
2022/07/04 10:06:24;;;;;;;;;0.00;0.00;;;;;;;;5093805;27;47231;-71
2022/07/04 10:08:49;;;;;;;;;0.00;0.00;;;;;;;;5092776;27;45537;-72
2022/07/04 10:11:15;;;;;;;;;1.00;1.00;;;;;;;;5094512;27;45543;-72
2022/07/04 10:13:40;;;;;;;;;1.00;1.00;;;;;;;;5094511;27;45493;-71
2022/07/04 10:16:07;;;;;;;;;0.00;0.00;;;;;;;;5091780;27;46582;-71
2022/07/04 10:18:34;;;;;;;;;2.00;0.00;;;;;;;;5092315;27;45483;-71
2022/07/04 10:20:59;;;;;;;;;1.00;1.00;;;;;;;;5094146;27;45376;-71
2022/07/04 10:23:30;;;;;;;;;1.00;0.00;;;;;;;;5092674;27;45552;-71
2022/07/04 10:25:56;;;;;;;;;0.33;0.33;;;;;;;;5091654;27;45809;-71
2022/07/04 10:28:21;;;;;;;;;0.33;0.33;;;;;;;;5092028;27;45467;-71
2022/07/04 10:30:48;;;;;;;;;1.00;1.00;;;;;;;;5092101;27;45483;-71
2022/07/04 10:33:15;;;;;;;;;0.67;0.67;;;;;;;;5091898;27;45494;-71
2022/07/04 10:36:03;;;;;;;;;0.00;0.00;;;;;;;;5092091;27;47393;-71
2022/07/04 10:38:29;;;;;;;;;0.00;0.00;;;;;;;;5086851;27;45559;-71
2022/07/04 10:40:56;;;;;;;;;1.00;1.00;;;;;;;;5095723;27;45448;-71
2022/07/04 10:45:56;;;;;;;;;1.00;1.00;;;;;;;;5091137;27;45349;-72
2022/07/04 10:48:24;;;;;;;;;1.00;0.67;;;;;;;;5091948;27;45359;-71
2022/07/04 10:50:59;;;;;;;;;0.33;0.33;;;;;;;;5092269;27;45556;-71
2022/07/04 10:53:24;;;;;;;;;1.00;1.00;;;;;;;;5092612;27;45537;-72
2022/07/04 10:55:49;;;;;;;;;1.00;1.00;;;;;;;;5094980;27;46240;-71
2022/07/04 10:58:35;;;;;;;;;2.00;1.00;;;;;;;;5091731;27;45709;-71
2022/07/04 11:01:13;;;;;;;;;1.00;1.00;;;;;;;;5091265;27;45463;-72
2022/07/04 11:03:45;;;;;;;;;1.00;1.00;;;;;;;;5093339;27;45502;-71
2022/07/04 11:06:29;;;;;;;;;1.00;1.00;;;;;;;;5091638;27;45639;-71
2022/07/04 11:09:12;;;;;;;;;1.00;1.00;;;;;;;;5091296;27;45429;-71
2022/07/04 11:11:51;;;;;;;;;1.00;1.00;;;;;;;;5088114;27;45355;-71
2022/07/04 11:14:39;;;;;;;;;0.67;0.67;;;;;;;;5093225;27;45959;-71
2022/07/04 11:17:06;;;;;;;;;0.00;0.00;;;;;;;;5084961;27;45436;-71
2022/07/04 11:19:31;;;;;;;;;0.33;0.33;;;;;;;;5092765;27;45493;-71
2022/07/04 11:21:57;;;;;;;;;1.00;1.00;;;;;;;;5091286;27;45402;-71
2022/07/04 11:24:23;;;;;;;;;2.33;1.00;;;;;;;;5091670;27;45512;-72
2022/07/04 11:26:48;;;;;;;;;1.00;1.00;;;;;;;;5091563;27;47134;-71
2022/07/04 11:29:14;;;;;;;;;1.00;1.00;;;;;;;;5093095;27;45429;-71
2022/07/04 11:31:41;;;;;;;;;0.00;0.00;;;;;;;;5093402;27;45381;-71
2022/07/04 11:34:06;;;;;;;;;3.33;2.00;;;;;;;;5091409;27;45369;-71
2022/07/04 11:36:31;;;;;;;;;1.67;1.33;;;;;;;;5093683;27;47259;-71
2022/07/04 11:38:58;;;;;;;;;1.00;1.00;;;;;;;;5091445;27;45369;-71
2022/07/04 11:47:02;;;;;;;;;2.00;1.00;;;;;;;;5092611;27;45358;-71
2022/07/04 11:49:28;;;;;;;;;1.00;1.00;;;;;;;;5092036;27;45410;-71
2022/07/04 11:51:55;;;;;;;;;1.67;1.00;;;;;;;;5090760;27;49088;-71
2022/07/04 11:54:20;;;;;;;;;1.00;1.00;;;;;;;;5091266;27;45612;-71
2022/07/04 11:56:46;;;;;;;;;1.33;1.33;;;;;;;;5092248;27;46272;-71
2022/07/04 11:59:15;;;;;;;;;2.00;1.00;;;;;;;;5096144;27;45491;-71
2022/07/04 12:01:41;;;;;;;;;1.67;1.67;;;;;;;;5096553;27;45228;-71
2022/07/04 12:04:17;;;;;;;;;2.67;1.33;;;;;;;;5094588;27;45348;-71
2022/07/04 12:06:43;;;;;;;;;1.00;1.00;;;;;;;;5094454;27;45674;-72
2022/07/04 12:09:08;;;;;;;;;1.00;1.00;;;;;;;;5094415;27;45502;-71
2022/07/04 12:11:49;;;;;;;;;1.33;1.33;;;;;;;;5094295;27;45488;-71
2022/07/04 12:14:14;;;;;;;;;2.00;2.00;;;;;;;;5096127;27;45173;-71
2022/07/04 12:16:39;;;;;;;;;1.00;1.00;;;;;;;;5097813;27;46289;-71
2022/07/04 12:19:09;;;;;;;;;1.00;1.00;;;;;;;;5094306;27;45440;-71
2022/07/04 12:21:34;;;;;;;;;1.33;1.00;;;;;;;;5094196;27;45464;-71
2022/07/04 12:24:02;;;;;;;;;2.00;2.00;;;;;;;;5094247;27;45554;-71
2022/07/04 12:26:28;;;;;;;;;1.00;1.00;;;;;;;;5088832;27;46342;-72
2022/07/04 12:28:53;;;;;;;;;2.00;2.00;;;;;;;;5097826;27;45466;-71
2022/07/04 12:31:18;;;;;;;;;1.33;1.33;;;;;;;;5093979;27;45346;-71
2022/07/04 12:33:54;;;;;;;;;2.00;2.00;;;;;;;;5095911;27;45380;-71
2022/07/04 12:36:19;;;;;;;;;2.67;2.67;;;;;;;;5093926;27;46289;-71
2022/07/04 12:38:44;;;;;;;;;1.00;0.33;;;;;;;;5094011;27;45283;-71
2022/07/04 12:41:11;;;;;;;;;2.00;2.00;;;;;;;;5096029;27;45212;-71
2022/07/04 12:43:42;;;;;;;;;1.00;1.00;;;;;;;;5095415;27;45727;-71
2022/07/04 12:46:08;;;;;;;;;3.33;1.00;;;;;;;;5093734;27;47303;-71
2022/07/04 12:48:34;;;;;;;;;3.33;2.00;;;;;;;;5093878;27;45369;-71
2022/07/04 12:51:13;;;;;;;;;1.00;1.00;;;;;;;;5093345;27;45603;-71
2022/07/04 12:53:39;;;;;;;;;2.00;2.00;;;;;;;;5089269;27;45365;-72
2022/07/04 12:56:05;;;;;;;;;4.00;2.67;;;;;;;;5095258;27;46150;-72
2022/07/04 12:58:31;;;;;;;;;1.67;1.67;;;;;;;;5094754;27;45452;-71
2022/07/04 13:00:56;;;;;;;;;1.00;1.00;;;;;;;;5093273;27;45557;-71
2022/07/04 13:03:21;;;;;;;;;2.00;2.00;;;;;;;;5093923;27;45323;-71
2022/07/04 13:05:46;;;;;;;;;3.00;3.00;;;;;;;;5093572;27;46701;-71
2022/07/04 13:08:12;;;;;;;;;2.00;2.00;;;;;;;;5095947;27;45453;-71
2022/07/04 13:10:37;;;;;;;;;2.00;2.00;;;;;;;;5092990;27;45426;-72
2022/07/04 13:13:02;;;;;;;;;2.00;2.00;;;;;;;;5093345;27;45478;-71
2022/07/04 13:15:28;;;;;;;;;1.33;1.33;;;;;;;;5094954;27;47427;-71
2022/07/04 13:17:53;;;;;;;;;2.00;2.00;;;;;;;;5093403;27;45473;-71
2022/07/04 13:20:19;;;;;;;;;1.00;1.00;;;;;;;;5094985;27;45537;-71
2022/07/04 13:22:44;;;;;;;;;1.00;1.00;;;;;;;;5095720;27;45393;-71
2022/07/04 13:25:10;;;;;;;;;1.33;1.33;;;;;;;;5092591;27;45561;-71
2022/07/04 13:27:35;;;;;;;;;1.00;1.00;;;;;;;;5093405;27;45435;-71
2022/07/04 13:30:00;;;;;;;;;1.33;1.33;;;;;;;;5093151;27;45469;-71
2022/07/04 13:32:25;;;;;;;;;3.00;3.00;;;;;;;;5093779;27;45467;-71
2022/07/04 13:34:51;;;;;;;;;2.00;2.00;;;;;;;;5096248;27;45448;-71
2022/07/04 13:37:17;;;;;;;;;1.67;1.67;;;;;;;;5092827;27;45405;-71
2022/07/04 13:39:42;;;;;;;;;1.33;1.33;;;;;;;;5092274;27;45476;-71
2022/07/04 13:42:08;;;;;;;;;2.00;2.00;;;;;;;;5092871;27;46014;-71
2022/07/04 13:44:34;;;;;;;;;2.33;2.33;;;;;;;;5092823;27;45417;-71
2022/07/04 13:46:59;;;;;;;;;2.00;2.00;;;;;;;;5095964;27;45510;-72
2022/07/04 13:49:25;;;;;;;;;1.00;1.00;;;;;;;;5092992;27;45423;-71
2022/07/04 13:51:50;;;;;;;;;2.00;2.00;;;;;;;;5092416;27;45390;-71
2022/07/04 13:54:16;;;;;;;;;0.67;0.67;;;;;;;;5092034;27;45409;-71
2022/07/04 13:56:42;;;;;;;;;2.00;2.00;;;;;;;;5092593;27;45311;-71
2022/07/04 13:59:07;;;;;;;;;1.67;1.67;;;;;;;;5094971;27;45401;-71
2022/07/04 14:01:33;;;;;;;;;3.00;1.00;;;;;;;;5093943;27;45369;-71
2022/07/04 14:03:58;;;;;;;;;2.33;2.00;;;;;;;;5092327;27;45532;-71
2022/07/04 14:06:24;;;;;;;;;2.00;2.00;;;;;;;;5092581;27;45291;-71
2022/07/04 14:08:49;;;;;;;;;3.00;3.00;;;;;;;;5092420;27;45492;-71
2022/07/04 14:11:14;;;;;;;;;1.00;1.00;;;;;;;;5094387;27;45294;-71
2022/07/04 14:13:39;;;;;;;;;2.67;2.67;;;;;;;;5094126;27;45594;-72
2022/07/04 14:16:06;;;;;;;;;1.00;1.00;;;;;;;;5092139;27;45591;-72
2022/07/04 14:18:31;;;;;;;;;1.33;1.33;;;;;;;;5092198;27;45360;-71
2022/07/04 14:20:56;;;;;;;;;0.33;0.33;;;;;;;;5091846;27;45899;-71
2022/07/04 14:23:40;;;;;;;;;2.00;2.00;;;;;;;;5092916;27;46259;-71
2022/07/04 14:26:05;;;;;;;;;1.00;1.00;;;;;;;;5091802;27;45366;-71
2022/07/04 14:28:31;;;;;;;;;2.00;2.00;;;;;;;;5093456;27;45417;-71
2022/07/04 14:30:56;;;;;;;;;1.00;1.00;;;;;;;;5092308;27;45330;-71
2022/07/04 14:33:22;;;;;;;;;3.00;2.00;;;;;;;;5092003;27;46440;-71
2022/07/04 14:35:47;;;;;;;;;1.00;1.00;;;;;;;;5092086;27;45444;-71
2022/07/04 14:38:12;;;;;;;;;2.00;2.00;;;;;;;;5094557;27;45667;-71
2022/07/04 14:40:38;;;;;;;;;1.67;1.67;;;;;;;;5093291;27;45495;-71
2022/07/04 14:43:04;;;;;;;;;2.00;2.00;;;;;;;;5091858;27;45385;-72
2022/07/04 14:45:30;;;;;;;;;1.00;1.00;;;;;;;;5092251;27;45499;-71
2022/07/04 14:47:55;;;;;;;;;2.00;1.67;;;;;;;;5092066;27;45514;-71
2022/07/04 14:50:20;;;;;;;;;1.00;1.00;;;;;;;;5092782;27;46707;-71
2022/07/04 14:52:45;;;;;;;;;2.67;1.33;;;;;;;;5093881;27;45429;-71
2022/07/04 14:55:10;;;;;;;;;1.00;1.00;;;;;;;;5091523;27;45322;-71
2022/07/04 14:57:36;;;;;;;;;3.33;2.33;;;;;;;;5091627;27;45371;-71
2022/07/04 15:00:01;;;;;;;;;3.00;1.67;;;;;;;;5091783;27;45405;-71
2022/07/04 15:02:26;;;;;;;;;2.33;2.33;;;;;;;;5093233;27;46273;-71